El Salvador International Airport


Codes: MSLP/SAL
Name: El Salvador International Airport
City: Santa Clara
Country: El Salvador
Elevation: 101 ft.
Wikipedia:

Photos at El Salvador International Airport


   Photos courtesy of SpottingLog. You can add your own sightings and photos by signing up for a free trial today.



No photos found.

Weather at El Salvador International Airport


Time (UTC)DescriptionTempratureWindCloud coverageVisibilityPressureHumidity
13-Jun-2024 03:00Light Rain28°C4 mph, W100%10000m1011hPa84%
13-Jun-2024 06:00Light Rain27°C4 mph, W100%10000m1011hPa87%
13-Jun-2024 09:00Light Rain26°C4 mph, NW100%10000m1010hPa90%
13-Jun-2024 12:00Light Rain26°C2 mph, N100%10000m1011hPa87%
13-Jun-2024 15:00Light Rain28°C7 mph, SE100%10000m1011hPa79%
13-Jun-2024 18:00Moderate Rain27°C9 mph, SW100%10000m1011hPa89%
13-Jun-2024 21:00Light Rain26°C9 mph, SW99%10000m1010hPa91%
14-Jun-2024 00:00Moderate Rain25°C11 mph, W100%6821m1010hPa96%
14-Jun-2024 03:00Light Rain25°C9 mph, NW100%10000m1011hPa93%
14-Jun-2024 06:00Overcast Clouds25°C9 mph, NW100%10000m1011hPa90%
14-Jun-2024 09:00Light Rain25°C9 mph, NW100%10000m1009hPa87%
14-Jun-2024 12:00Overcast Clouds25°C9 mph, NW100%10000m1009hPa83%
14-Jun-2024 15:00Light Rain28°C9 mph, W100%10000m1010hPa74%
14-Jun-2024 18:00Light Rain31°C11 mph, W99%10000m1008hPa61%
14-Jun-2024 21:00Light Rain31°C18 mph, W66%10000m1006hPa68%
15-Jun-2024 00:00Light Rain28°C16 mph, W82%10000m1006hPa78%
15-Jun-2024 03:00Light Rain27°C11 mph, W100%10000m1008hPa83%
15-Jun-2024 06:00Light Rain25°C7 mph, NW100%10000m1008hPa87%
15-Jun-2024 09:00Light Rain25°C4 mph, NW100%10000m1007hPa90%
15-Jun-2024 12:00Light Rain25°C2 mph, NW100%10000m1007hPa90%
15-Jun-2024 15:00Light Rain27°C7 mph, W100%10000m1009hPa86%
15-Jun-2024 18:00Moderate Rain26°C4 mph, SW100%10000m1008hPa90%
15-Jun-2024 21:00Moderate Rain26°C9 mph, SW100%6109m1006hPa93%
16-Jun-2024 00:00Moderate Rain25°C11 mph, SW100%4162m1006hPa97%
16-Jun-2024 03:00Very Heavy Rain25°C22 mph, S100%407m1004hPa99%
16-Jun-2024 06:00Very Heavy Rain25°C20 mph, SW100%1264m1007hPa97%
16-Jun-2024 09:00Heavy Intensity Rain25°C11 mph, SW100%1774m1007hPa96%
16-Jun-2024 12:00Moderate Rain25°C7 mph, SE100%987m1007hPa97%
16-Jun-2024 15:00Very Heavy Rain25°C9 mph, SW100%136m1008hPa99%
16-Jun-2024 18:00Very Heavy Rain25°C11 mph, SW100%655m1009hPa98%
16-Jun-2024 21:00Heavy Intensity Rain25°C16 mph, S100%779m1007hPa98%
17-Jun-2024 00:00Heavy Intensity Rain25°C22 mph, SW100%618m1007hPa97%
17-Jun-2024 03:00Heavy Intensity Rain25°C16 mph, S100%1032m1009hPa97%
17-Jun-2024 06:00Heavy Intensity Rain25°C16 mph, SW100%1209m1009hPa97%
17-Jun-2024 09:00Heavy Intensity Rain25°C11 mph, SW100%428m1006hPa98%
17-Jun-2024 12:00Very Heavy Rain25°C16 mph, SW100%377m1007hPa99%
17-Jun-2024 15:00Very Heavy Rain25°C18 mph, S100%455m1009hPa99%
17-Jun-2024 18:00Heavy Intensity Rain25°C11 mph, SW100%875m1009hPa98%
17-Jun-2024 21:00Very Heavy Rain24°C4 mph, W100%634m1008hPa99%
18-Jun-2024 00:00Heavy Intensity Rain24°C7 mph, NE100%2165m1008hPa98%